sensor_id;sensor_type;location;lat;lon;timestamp;pressure;altitude;pressure_sealevel;temperature;humidity
50710;BME280;37033;49.994;21.992;2024-01-30T00:01:09;101315.91;;;-1.29;81.23
50710;BME280;37033;49.994;21.992;2024-01-30T00:03:50;101315.20;;;-1.25;81.17
50710;BME280;37033;49.994;21.992;2024-01-30T00:06:21;101309.19;;;-1.21;81.06
50710;BME280;37033;49.994;21.992;2024-01-30T00:08:52;101315.15;;;-1.17;81.02
50710;BME280;37033;49.994;21.992;2024-01-30T00:11:23;101314.75;;;-1.16;80.95
50710;BME280;37033;49.994;21.992;2024-01-30T00:13:54;101315.85;;;-1.14;80.85
50710;BME280;37033;49.994;21.992;2024-01-30T00:16:26;101312.20;;;-1.13;80.72
50710;BME280;37033;49.994;21.992;2024-01-30T00:18:57;101309.19;;;-1.13;80.71
50710;BME280;37033;49.994;21.992;2024-01-30T00:21:28;101309.17;;;-1.13;80.58
50710;BME280;37033;49.994;21.992;2024-01-30T00:23:58;101308.87;;;-1.14;80.49
50710;BME280;37033;49.994;21.992;2024-01-30T00:26:29;101307.58;;;-1.13;80.47
50710;BME280;37033;49.994;21.992;2024-01-30T00:28:59;101301.70;;;-1.14;80.46
50710;BME280;37033;49.994;21.992;2024-01-30T00:31:30;101301.02;;;-1.14;80.52
50710;BME280;37033;49.994;21.992;2024-01-30T00:34:01;101303.31;;;-1.16;80.33
50710;BME280;37033;49.994;21.992;2024-01-30T00:36:32;101304.20;;;-1.18;80.39
50710;BME280;37033;49.994;21.992;2024-01-30T00:39:03;101301.31;;;-1.20;80.37
50710;BME280;37033;49.994;21.992;2024-01-30T00:41:38;101300.02;;;-1.22;80.45
50710;BME280;37033;49.994;21.992;2024-01-30T00:44:08;101293.09;;;-1.24;80.24
50710;BME280;37033;49.994;21.992;2024-01-30T00:46:39;101287.21;;;-1.26;80.39
50710;BME280;37033;49.994;21.992;2024-01-30T00:49:10;101282.55;;;-1.26;80.36
50710;BME280;37033;49.994;21.992;2024-01-30T00:51:40;101284.44;;;-1.25;80.41
50710;BME280;37033;49.994;21.992;2024-01-30T00:54:11;101281.75;;;-1.25;80.51
50710;BME280;37033;49.994;21.992;2024-01-30T00:56:42;101279.39;;;-1.22;80.35
50710;BME280;37033;49.994;21.992;2024-01-30T00:59:13;101278.14;;;-1.17;80.43
50710;BME280;37033;49.994;21.992;2024-01-30T01:01:44;101282.39;;;-1.14;80.22
50710;BME280;37033;49.994;21.992;2024-01-30T01:04:14;101279.23;;;-1.10;80.05
50710;BME280;37033;49.994;21.992;2024-01-30T01:06:45;101276.58;;;-1.06;80.08
50710;BME280;37033;49.994;21.992;2024-01-30T01:09:15;101274.89;;;-1.03;79.88
50710;BME280;37033;49.994;21.992;2024-01-30T01:11:46;101268.73;;;-0.99;79.87
50710;BME280;37033;49.994;21.992;2024-01-30T01:14:17;101259.36;;;-0.95;79.69
50710;BME280;37033;49.994;21.992;2024-01-30T01:16:48;101255.67;;;-0.93;79.69
50710;BME280;37033;49.994;21.992;2024-01-30T01:19:19;101258.18;;;-0.93;79.61
50710;BME280;37033;49.994;21.992;2024-01-30T01:21:49;101258.13;;;-0.95;79.51
50710;BME280;37033;49.994;21.992;2024-01-30T01:24:20;101247.98;;;-0.97;79.44
50710;BME280;37033;49.994;21.992;2024-01-30T01:26:51;101245.90;;;-0.98;79.55
50710;BME280;37033;49.994;21.992;2024-01-30T01:29:21;101247.79;;;-0.97;79.60
50710;BME280;37033;49.994;21.992;2024-01-30T01:31:58;101243.14;;;-0.97;79.50
50710;BME280;37033;49.994;21.992;2024-01-30T01:34:28;101238.09;;;-0.96;79.54
50710;BME280;37033;49.994;21.992;2024-01-30T01:36:59;101241.16;;;-0.94;79.39
50710;BME280;37033;49.994;21.992;2024-01-30T01:39:30;101239.70;;;-0.92;79.39
50710;BME280;37033;49.994;21.992;2024-01-30T01:42:00;101236.75;;;-0.88;79.43
50710;BME280;37033;49.994;21.992;2024-01-30T01:44:31;101230.01;;;-0.86;79.36
50710;BME280;37033;49.994;21.992;2024-01-30T01:47:02;101230.36;;;-0.84;79.36
50710;BME280;37033;49.994;21.992;2024-01-30T01:49:33;101230.34;;;-0.84;79.05
50710;BME280;37033;49.994;21.992;2024-01-30T01:52:04;101228.84;;;-0.80;79.01
50710;BME280;37033;49.994;21.992;2024-01-30T01:54:35;101229.92;;;-0.78;78.98
50710;BME280;37033;49.994;21.992;2024-01-30T01:57:06;101232.44;;;-0.79;78.93
50710;BME280;37033;49.994;21.992;2024-01-30T01:59:36;101236.95;;;-0.79;78.93
50710;BME280;37033;49.994;21.992;2024-01-30T02:02:09;101231.77;;;-0.79;78.99
50710;BME280;37033;49.994;21.992;2024-01-30T02:04:41;101235.45;;;-0.81;78.83
50710;BME280;37033;49.994;21.992;2024-01-30T02:07:12;101231.38;;;-0.84;78.81
50710;BME280;37033;49.994;21.992;2024-01-30T02:09:43;101231.67;;;-0.83;78.92
50710;BME280;37033;49.994;21.992;2024-01-30T02:12:14;101231.86;;;-0.83;78.85
50710;BME280;37033;49.994;21.992;2024-01-30T02:14:48;101229.70;;;-0.83;78.83
50710;BME280;37033;49.994;21.992;2024-01-30T02:17:19;101225.27;;;-0.83;78.76
50710;BME280;37033;49.994;21.992;2024-01-30T02:19:49;101225.75;;;-0.82;78.75
50710;BME280;37033;49.994;21.992;2024-01-30T02:22:20;101223.56;;;-0.77;78.54
50710;BME280;37033;49.994;21.992;2024-01-30T02:24:52;101222.17;;;-0.73;78.79
50710;BME280;37033;49.994;21.992;2024-01-30T02:27:23;101222.45;;;-0.72;78.57
50710;BME280;37033;49.994;21.992;2024-01-30T02:29:53;101218.26;;;-0.73;78.39
50710;BME280;37033;49.994;21.992;2024-01-30T02:32:24;101216.25;;;-0.72;78.40
50710;BME280;37033;49.994;21.992;2024-01-30T02:34:55;101217.60;;;-0.67;78.34
50710;BME280;37033;49.994;21.992;2024-01-30T02:37:25;101211.74;;;-0.61;78.37
50710;BME280;37033;49.994;21.992;2024-01-30T02:39:56;101213.10;;;-0.57;78.39
50710;BME280;37033;49.994;21.992;2024-01-30T02:42:27;101215.52;;;-0.56;78.14
50710;BME280;37033;49.994;21.992;2024-01-30T02:44:57;101215.48;;;-0.56;77.95
50710;BME280;37033;49.994;21.992;2024-01-30T02:47:28;101216.43;;;-0.54;77.94
50710;BME280;37033;49.994;21.992;2024-01-30T02:49:58;101221.06;;;-0.46;77.40
50710;BME280;37033;49.994;21.992;2024-01-30T02:52:29;101221.39;;;-0.39;77.61
50710;BME280;37033;49.994;21.992;2024-01-30T02:55:00;101221.98;;;-0.37;77.45
50710;BME280;37033;49.994;21.992;2024-01-30T02:57:31;101219.95;;;-0.36;77.47
50710;BME280;37033;49.994;21.992;2024-01-30T03:00:02;101225.95;;;-0.36;77.54
50710;BME280;37033;49.994;21.992;2024-01-30T03:02:33;101222.29;;;-0.32;77.33
50710;BME280;37033;49.994;21.992;2024-01-30T03:05:05;101219.73;;;-0.30;77.39
50710;BME280;37033;49.994;21.992;2024-01-30T03:07:36;101218.02;;;-0.26;77.29
50710;BME280;37033;49.994;21.992;2024-01-30T03:10:08;101218.23;;;-0.22;77.21
50710;BME280;37033;49.994;21.992;2024-01-30T03:12:39;101220.94;;;-0.18;77.31
50710;BME280;37033;49.994;21.992;2024-01-30T03:15:10;101220.25;;;-0.14;77.09
50710;BME280;37033;49.994;21.992;2024-01-30T03:17:41;101223.66;;;-0.12;77.20
50710;BME280;37033;49.994;21.992;2024-01-30T03:20:12;101223.14;;;-0.12;77.02
50710;BME280;37033;49.994;21.992;2024-01-30T03:22:43;101219.13;;;-0.11;77.13
50710;BME280;37033;49.994;21.992;2024-01-30T03:25:14;101217.14;;;-0.09;76.94
50710;BME280;37033;49.994;21.992;2024-01-30T03:27:45;101216.91;;;-0.06;77.17
50710;BME280;37033;49.994;21.992;2024-01-30T03:30:15;101214.81;;;-0.02;76.77
50710;BME280;37033;49.994;21.992;2024-01-30T03:32:46;101217.59;;;0.01;76.87
50710;BME280;37033;49.994;21.992;2024-01-30T03:35:18;101218.45;;;0.04;76.89
50710;BME280;37033;49.994;21.992;2024-01-30T03:37:49;101222.71;;;0.04;76.99
50710;BME280;37033;49.994;21.992;2024-01-30T03:40:20;101222.64;;;0.05;76.71
50710;BME280;37033;49.994;21.992;2024-01-30T03:42:50;101222.44;;;0.09;76.84
50710;BME280;37033;49.994;21.992;2024-01-30T03:45:21;101221.89;;;0.11;76.94
50710;BME280;37033;49.994;21.992;2024-01-30T03:47:52;101222.26;;;0.13;76.86
50710;BME280;37033;49.994;21.992;2024-01-30T03:50:22;101227.12;;;0.17;76.63
50710;BME280;37033;49.994;21.992;2024-01-30T03:52:53;101222.73;;;0.18;76.58
50710;BME280;37033;49.994;21.992;2024-01-30T03:55:24;101227.44;;;0.19;76.69
50710;BME280;37033;49.994;21.992;2024-01-30T03:57:55;101220.95;;;0.18;76.66
50710;BME280;37033;49.994;21.992;2024-01-30T04:00:25;101217.48;;;0.17;76.67
50710;BME280;37033;49.994;21.992;2024-01-30T04:02:56;101217.95;;;0.15;76.69
50710;BME280;37033;49.994;21.992;2024-01-30T04:05:27;101219.55;;;0.16;76.86
50710;BME280;37033;49.994;21.992;2024-01-30T04:07:58;101221.15;;;0.16;76.85
50710;BME280;37033;49.994;21.992;2024-01-30T04:10:28;101220.74;;;0.14;76.91
50710;BME280;37033;49.994;21.992;2024-01-30T04:12:59;101221.61;;;0.12;76.96
50710;BME280;37033;49.994;21.992;2024-01-30T04:15:30;101217.48;;;0.11;76.96
50710;BME280;37033;49.994;21.992;2024-01-30T04:18:00;101219.98;;;0.11;76.94
50710;BME280;37033;49.994;21.992;2024-01-30T04:20:31;101225.44;;;0.11;76.85
50710;BME280;37033;49.994;21.992;2024-01-30T04:23:02;101224.16;;;0.12;76.92
50710;BME280;37033;49.994;21.992;2024-01-30T04:25:33;101223.55;;;0.11;76.90
50710;BME280;37033;49.994;21.992;2024-01-30T04:28:04;101227.31;;;0.10;76.88
50710;BME280;37033;49.994;21.992;2024-01-30T04:30:34;101228.71;;;0.09;76.98
50710;BME280;37033;49.994;21.992;2024-01-30T04:33:05;101235.53;;;0.06;76.97
50710;BME280;37033;49.994;21.992;2024-01-30T04:35:37;101229.16;;;0.04;76.94
50710;BME280;37033;49.994;21.992;2024-01-30T04:38:08;101231.61;;;0.02;77.13
50710;BME280;37033;49.994;21.992;2024-01-30T04:40:38;101226.90;;;-0.02;77.05
50710;BME280;37033;49.994;21.992;2024-01-30T04:43:09;101230.70;;;-0.02;77.13
50710;BME280;37033;49.994;21.992;2024-01-30T04:45:39;101234.04;;;-0.04;77.19
50710;BME280;37033;49.994;21.992;2024-01-30T04:48:10;101231.47;;;-0.05;77.19
50710;BME280;37033;49.994;21.992;2024-01-30T04:50:41;101228.55;;;-0.07;77.38
50710;BME280;37033;49.994;21.992;2024-01-30T04:53:12;101228.83;;;-0.08;77.34
50710;BME280;37033;49.994;21.992;2024-01-30T04:55:44;101224.05;;;-0.10;77.31
50710;BME280;37033;49.994;21.992;2024-01-30T04:58:14;101222.31;;;-0.13;77.32
50710;BME280;37033;49.994;21.992;2024-01-30T05:00:45;101219.38;;;-0.14;77.23
50710;BME280;37033;49.994;21.992;2024-01-30T05:03:20;101218.37;;;-0.17;77.30
50710;BME280;37033;49.994;21.992;2024-01-30T05:05:52;101214.69;;;-0.20;77.28
50710;BME280;37033;49.994;21.992;2024-01-30T05:08:22;101217.20;;;-0.20;77.39
50710;BME280;37033;49.994;21.992;2024-01-30T05:10:53;101215.73;;;-0.22;77.25
50710;BME280;37033;49.994;21.992;2024-01-30T05:13:24;101217.55;;;-0.23;77.15
50710;BME280;37033;49.994;21.992;2024-01-30T05:15:54;101213.11;;;-0.22;77.13
50710;BME280;37033;49.994;21.992;2024-01-30T05:18:25;101215.38;;;-0.22;77.08
50710;BME280;37033;49.994;21.992;2024-01-30T05:20:56;101218.42;;;-0.22;77.13
50710;BME280;37033;49.994;21.992;2024-01-30T05:23:27;101221.11;;;-0.23;77.19
50710;BME280;37033;49.994;21.992;2024-01-30T05:25:57;101227.20;;;-0.23;77.04
50710;BME280;37033;49.994;21.992;2024-01-30T05:28:30;101228.52;;;-0.24;77.07
50710;BME280;37033;49.994;21.992;2024-01-30T05:31:00;101228.98;;;-0.25;77.00
50710;BME280;37033;49.994;21.992;2024-01-30T05:33:31;101227.55;;;-0.27;77.03
50710;BME280;37033;49.994;21.992;2024-01-30T05:36:02;101229.36;;;-0.27;76.95
50710;BME280;37033;49.994;21.992;2024-01-30T05:38:32;101229.02;;;-0.28;76.92
50710;BME280;37033;49.994;21.992;2024-01-30T05:41:03;101234.51;;;-0.27;76.96
50710;BME280;37033;49.994;21.992;2024-01-30T05:43:34;101227.44;;;-0.28;76.97
50710;BME280;37033;49.994;21.992;2024-01-30T05:46:05;101234.80;;;-0.28;76.97
50710;BME280;37033;49.994;21.992;2024-01-30T05:48:36;101237.98;;;-0.30;76.85
50710;BME280;37033;49.994;21.992;2024-01-30T05:51:08;101241.14;;;-0.32;76.80
50710;BME280;37033;49.994;21.992;2024-01-30T05:53:38;101238.65;;;-0.34;76.94
50710;BME280;37033;49.994;21.992;2024-01-30T05:56:09;101244.90;;;-0.36;76.89
50710;BME280;37033;49.994;21.992;2024-01-30T05:58:40;101248.28;;;-0.39;76.90
50710;BME280;37033;49.994;21.992;2024-01-30T06:01:12;101245.90;;;-0.42;76.90
50710;BME280;37033;49.994;21.992;2024-01-30T06:03:43;101249.19;;;-0.46;77.00
50710;BME280;37033;49.994;21.992;2024-01-30T06:06:13;101250.45;;;-0.50;76.91
50710;BME280;37033;49.994;21.992;2024-01-30T06:08:44;101250.48;;;-0.53;77.04
50710;BME280;37033;49.994;21.992;2024-01-30T06:11:15;101248.39;;;-0.58;76.85
50710;BME280;37033;49.994;21.992;2024-01-30T06:13:45;101249.50;;;-0.61;76.89
50710;BME280;37033;49.994;21.992;2024-01-30T06:16:16;101247.92;;;-0.63;76.92
50710;BME280;37033;49.994;21.992;2024-01-30T06:18:47;101248.95;;;-0.65;77.02
50710;BME280;37033;49.994;21.992;2024-01-30T06:21:18;101252.30;;;-0.67;76.82
50710;BME280;37033;49.994;21.992;2024-01-30T06:23:49;101253.98;;;-0.68;76.97
50710;BME280;37033;49.994;21.992;2024-01-30T06:26:20;101255.24;;;-0.68;77.09
50710;BME280;37033;49.994;21.992;2024-01-30T06:28:50;101250.14;;;-0.69;76.99
50710;BME280;37033;49.994;21.992;2024-01-30T06:31:21;101254.48;;;-0.67;76.98
50710;BME280;37033;49.994;21.992;2024-01-30T06:33:52;101253.46;;;-0.66;76.92
50710;BME280;37033;49.994;21.992;2024-01-30T06:36:22;101251.02;;;-0.62;76.97
50710;BME280;37033;49.994;21.992;2024-01-30T06:38:53;101250.39;;;-0.56;76.70
50710;BME280;37033;49.994;21.992;2024-01-30T06:41:24;101254.52;;;-0.50;76.67
50710;BME280;37033;49.994;21.992;2024-01-30T06:43:55;101251.98;;;-0.45;76.55
50710;BME280;37033;49.994;21.992;2024-01-30T06:46:25;101250.11;;;-0.42;76.60
50710;BME280;37033;49.994;21.992;2024-01-30T06:48:56;101248.95;;;-0.38;76.38
50710;BME280;37033;49.994;21.992;2024-01-30T06:51:27;101247.46;;;-0.33;75.99
50710;BME280;37033;49.994;21.992;2024-01-30T06:53:58;101245.99;;;-0.28;76.01
50710;BME280;37033;49.994;21.992;2024-01-30T06:56:30;101240.43;;;-0.21;75.68
50710;BME280;37033;49.994;21.992;2024-01-30T06:59:00;101239.89;;;-0.12;75.52
50710;BME280;37033;49.994;21.992;2024-01-30T07:01:31;101245.63;;;-0.04;75.21
50710;BME280;37033;49.994;21.992;2024-01-30T07:04:03;101243.55;;;0.02;74.96
50710;BME280;37033;49.994;21.992;2024-01-30T07:06:34;101239.74;;;0.09;74.71
50710;BME280;37033;49.994;21.992;2024-01-30T07:09:05;101243.33;;;0.17;74.52
50710;BME280;37033;49.994;21.992;2024-01-30T07:11:35;101243.90;;;0.24;74.24
50710;BME280;37033;49.994;21.992;2024-01-30T07:14:07;101244.79;;;0.30;74.10
50710;BME280;37033;49.994;21.992;2024-01-30T07:16:38;101243.52;;;0.34;74.09
50710;BME280;37033;49.994;21.992;2024-01-30T07:19:08;101245.36;;;0.40;73.84
50710;BME280;37033;49.994;21.992;2024-01-30T07:21:39;101245.70;;;0.46;73.36
50710;BME280;37033;49.994;21.992;2024-01-30T07:24:10;101245.75;;;0.54;73.20
50710;BME280;37033;49.994;21.992;2024-01-30T07:26:41;101242.21;;;0.60;72.85
50710;BME280;37033;49.994;21.992;2024-01-30T07:29:11;101246.92;;;0.66;72.87
50710;BME280;37033;49.994;21.992;2024-01-30T07:31:42;101248.64;;;0.70;72.69
50710;BME280;37033;49.994;21.992;2024-01-30T07:34:13;101248.99;;;0.77;71.94
50710;BME280;37033;49.994;21.992;2024-01-30T07:36:43;101250.84;;;0.85;71.65
50710;BME280;37033;49.994;21.992;2024-01-30T07:39:15;101245.95;;;0.91;71.43
50710;BME280;37033;49.994;21.992;2024-01-30T07:41:46;101243.46;;;0.95;71.13
50710;BME280;37033;49.994;21.992;2024-01-30T07:44:16;101246.13;;;1.00;70.83
50710;BME280;37033;49.994;21.992;2024-01-30T07:46:47;101248.00;;;1.05;70.63
50710;BME280;37033;49.994;21.992;2024-01-30T07:49:18;101243.10;;;1.10;70.61
50710;BME280;37033;49.994;21.992;2024-01-30T07:51:48;101244.80;;;1.15;70.30
50710;BME280;37033;49.994;21.992;2024-01-30T07:54:19;101239.28;;;1.21;69.66
50710;BME280;37033;49.994;21.992;2024-01-30T07:56:50;101237.56;;;1.26;69.83
50710;BME280;37033;49.994;21.992;2024-01-30T07:59:20;101238.77;;;1.31;69.29
50710;BME280;37033;49.994;21.992;2024-01-30T08:01:54;101235.63;;;1.36;69.03
50710;BME280;37033;49.994;21.992;2024-01-30T08:04:24;101239.92;;;1.42;68.23
50710;BME280;37033;49.994;21.992;2024-01-30T08:06:55;101237.00;;;1.47;68.32
50710;BME280;37033;49.994;21.992;2024-01-30T08:09:26;101240.43;;;1.50;68.30
50710;BME280;37033;49.994;21.992;2024-01-30T08:11:56;101240.59;;;1.55;68.06
50710;BME280;37033;49.994;21.992;2024-01-30T08:14:27;101241.58;;;1.60;67.91
50710;BME280;37033;49.994;21.992;2024-01-30T08:16:57;101238.10;;;1.65;67.78
50710;BME280;37033;49.994;21.992;2024-01-30T08:19:28;101240.93;;;1.69;67.51
50710;BME280;37033;49.994;21.992;2024-01-30T08:21:59;101238.08;;;1.74;67.28
50710;BME280;37033;49.994;21.992;2024-01-30T08:24:30;101242.35;;;1.79;67.59
50710;BME280;37033;49.994;21.992;2024-01-30T08:27:00;101243.81;;;1.85;67.12
50710;BME280;37033;49.994;21.992;2024-01-30T08:29:31;101239.10;;;1.89;66.62
50710;BME280;37033;49.994;21.992;2024-01-30T08:32:02;101242.71;;;1.95;66.49
50710;BME280;37033;49.994;21.992;2024-01-30T08:34:33;101237.89;;;1.98;66.73
50710;BME280;37033;49.994;21.992;2024-01-30T08:37:04;101243.45;;;2.02;66.95
50710;BME280;37033;49.994;21.992;2024-01-30T08:39:34;101241.12;;;2.08;66.29
50710;BME280;37033;49.994;21.992;2024-01-30T08:42:06;101235.80;;;2.13;65.76
50710;BME280;37033;49.994;21.992;2024-01-30T08:44:37;101235.39;;;2.18;65.94
50710;BME280;37033;49.994;21.992;2024-01-30T08:47:08;101234.98;;;2.23;65.46
50710;BME280;37033;49.994;21.992;2024-01-30T08:49:38;101234.65;;;2.26;65.24
50710;BME280;37033;49.994;21.992;2024-01-30T08:52:09;101233.69;;;2.31;64.46
50710;BME280;37033;49.994;21.992;2024-01-30T08:54:40;101236.37;;;2.35;64.24
50710;BME280;37033;49.994;21.992;2024-01-30T08:57:10;101233.82;;;2.39;64.32
50710;BME280;37033;49.994;21.992;2024-01-30T08:59:41;101238.88;;;2.44;64.11
50710;BME280;37033;49.994;21.992;2024-01-30T09:02:14;101232.68;;;2.47;64.31
50710;BME280;37033;49.994;21.992;2024-01-30T09:04:45;101234.63;;;2.51;64.86
50710;BME280;37033;49.994;21.992;2024-01-30T09:07:16;101226.95;;;2.57;65.08
50710;BME280;37033;49.994;21.992;2024-01-30T09:09:47;101224.91;;;2.64;64.89
50710;BME280;37033;49.994;21.992;2024-01-30T09:12:18;101224.85;;;2.68;64.10
50710;BME280;37033;49.994;21.992;2024-01-30T09:14:49;101226.39;;;2.73;64.17
50710;BME280;37033;49.994;21.992;2024-01-30T09:17:19;101226.13;;;2.77;64.25
50710;BME280;37033;49.994;21.992;2024-01-30T09:19:50;101227.98;;;2.82;63.25
50710;BME280;37033;49.994;21.992;2024-01-30T09:22:21;101222.48;;;2.87;63.35
50710;BME280;37033;49.994;21.992;2024-01-30T09:24:51;101215.95;;;2.92;63.47
50710;BME280;37033;49.994;21.992;2024-01-30T09:27:22;101212.77;;;2.95;63.54
50710;BME280;37033;49.994;21.992;2024-01-30T09:29:52;101210.64;;;3.01;62.89
50710;BME280;37033;49.994;21.992;2024-01-30T09:32:23;101203.58;;;3.07;62.24
50710;BME280;37033;49.994;21.992;2024-01-30T09:34:54;101198.15;;;3.11;62.21
50710;BME280;37033;49.994;21.992;2024-01-30T09:37:24;101199.63;;;3.17;61.87
50710;BME280;37033;49.994;21.992;2024-01-30T09:39:55;101200.27;;;3.23;62.03
50710;BME280;37033;49.994;21.992;2024-01-30T09:42:31;101199.89;;;3.29;62.17
50710;BME280;37033;49.994;21.992;2024-01-30T09:45:04;101203.45;;;3.34;62.00
50710;BME280;37033;49.994;21.992;2024-01-30T09:47:40;101197.95;;;3.40;62.21
50710;BME280;37033;49.994;21.992;2024-01-30T09:50:12;101197.03;;;3.45;61.74
50710;BME280;37033;49.994;21.992;2024-01-30T09:52:44;101197.47;;;3.50;61.37
50710;BME280;37033;49.994;21.992;2024-01-30T09:55:15;101195.17;;;3.55;61.35
50710;BME280;37033;49.994;21.992;2024-01-30T09:57:46;101197.35;;;3.60;60.41
50710;BME280;37033;49.994;21.992;2024-01-30T10:00:17;101193.98;;;3.65;60.14
50710;BME280;37033;49.994;21.992;2024-01-30T10:02:48;101196.48;;;3.69;60.09
50710;BME280;37033;49.994;21.992;2024-01-30T10:05:20;101191.86;;;3.72;59.94
50710;BME280;37033;49.994;21.992;2024-01-30T10:07:58;101188.19;;;3.78;60.02
50710;BME280;37033;49.994;21.992;2024-01-30T10:10:28;101188.77;;;3.85;60.14
50710;BME280;37033;49.994;21.992;2024-01-30T10:13:00;101182.84;;;3.91;60.16
50710;BME280;37033;49.994;21.992;2024-01-30T10:15:30;101182.88;;;3.96;60.31
50710;BME280;37033;49.994;21.992;2024-01-30T10:18:01;101177.89;;;4.01;60.12
50710;BME280;37033;49.994;21.992;2024-01-30T10:20:32;101175.94;;;4.06;60.14
50710;BME280;37033;49.994;21.992;2024-01-30T10:23:02;101175.76;;;4.11;59.82
50710;BME280;37033;49.994;21.992;2024-01-30T10:25:33;101172.65;;;4.15;59.24
50710;BME280;37033;49.994;21.992;2024-01-30T10:28:05;101173.05;;;4.19;58.92
50710;BME280;37033;49.994;21.992;2024-01-30T10:30:35;101167.58;;;4.21;58.91
50710;BME280;37033;49.994;21.992;2024-01-30T10:33:06;101166.17;;;4.24;58.78
50710;BME280;37033;49.994;21.992;2024-01-30T10:35:37;101160.68;;;4.29;58.68
50710;BME280;37033;49.994;21.992;2024-01-30T10:38:10;101154.15;;;4.33;58.23
50710;BME280;37033;49.994;21.992;2024-01-30T10:40:42;101150.23;;;4.36;58.24
50710;BME280;37033;49.994;21.992;2024-01-30T10:43:15;101154.56;;;4.40;58.00
50710;BME280;37033;49.994;21.992;2024-01-30T10:45:50;101145.69;;;4.46;57.82
50710;BME280;37033;49.994;21.992;2024-01-30T10:48:26;101143.49;;;4.51;57.67
50710;BME280;37033;49.994;21.992;2024-01-30T10:51:01;101139.96;;;4.56;57.44
50710;BME280;37033;49.994;21.992;2024-01-30T10:53:33;101137.12;;;4.61;57.29
50710;BME280;37033;49.994;21.992;2024-01-30T10:56:06;101133.42;;;4.64;56.90
50710;BME280;37033;49.994;21.992;2024-01-30T10:58:37;101130.38;;;4.67;56.81
50710;BME280;37033;49.994;21.992;2024-01-30T11:01:08;101130.63;;;4.71;56.67
50710;BME280;37033;49.994;21.992;2024-01-30T11:03:40;101130.68;;;4.76;56.45
50710;BME280;37033;49.994;21.992;2024-01-30T11:06:13;101126.78;;;4.79;56.15
50710;BME280;37033;49.994;21.992;2024-01-30T11:08:47;101125.97;;;4.82;56.47
50710;BME280;37033;49.994;21.992;2024-01-30T11:11:30;101119.62;;;4.86;56.53
50710;BME280;37033;49.994;21.992;2024-01-30T11:14:03;101119.54;;;4.91;56.28
50710;BME280;37033;49.994;21.992;2024-01-30T11:16:34;101120.16;;;4.96;55.31
50710;BME280;37033;49.994;21.992;2024-01-30T11:19:05;101119.58;;;4.98;54.75
50710;BME280;37033;49.994;21.992;2024-01-30T11:21:43;101120.32;;;5.00;55.13
50710;BME280;37033;49.994;21.992;2024-01-30T11:24:14;101118.45;;;5.02;54.75
50710;BME280;37033;49.994;21.992;2024-01-30T11:26:45;101119.37;;;5.03;54.75
50710;BME280;37033;49.994;21.992;2024-01-30T11:29:16;101116.70;;;5.05;55.04
50710;BME280;37033;49.994;21.992;2024-01-30T11:31:57;101111.89;;;5.06;54.76
50710;BME280;37033;49.994;21.992;2024-01-30T11:34:28;101108.95;;;5.08;54.82
50710;BME280;37033;49.994;21.992;2024-01-30T11:36:59;101105.83;;;5.11;54.73
50710;BME280;37033;49.994;21.992;2024-01-30T11:39:32;101103.25;;;5.15;54.63
50710;BME280;37033;49.994;21.992;2024-01-30T11:42:06;101100.67;;;5.19;54.95
50710;BME280;37033;49.994;21.992;2024-01-30T11:44:38;101095.80;;;5.23;55.29
50710;BME280;37033;49.994;21.992;2024-01-30T11:47:08;101093.08;;;5.27;55.12
50710;BME280;37033;49.994;21.992;2024-01-30T11:49:40;101086.79;;;5.31;54.31
50710;BME280;37033;49.994;21.992;2024-01-30T11:52:12;101086.73;;;5.33;54.48
50710;BME280;37033;49.994;21.992;2024-01-30T11:54:44;101083.86;;;5.35;54.42
50710;BME280;37033;49.994;21.992;2024-01-30T11:57:14;101083.48;;;5.37;54.04
50710;BME280;37033;49.994;21.992;2024-01-30T11:59:45;101085.23;;;5.37;54.48
50710;BME280;37033;49.994;21.992;2024-01-30T12:02:18;101084.80;;;5.40;54.35
50710;BME280;37033;49.994;21.992;2024-01-30T12:04:49;101081.13;;;5.42;54.52
50710;BME280;37033;49.994;21.992;2024-01-30T12:07:19;101081.34;;;5.45;54.48
50710;BME280;37033;49.994;21.992;2024-01-30T12:09:54;101082.17;;;5.47;53.94
50710;BME280;37033;49.994;21.992;2024-01-30T12:12:26;101084.69;;;5.47;54.25
50710;BME280;37033;49.994;21.992;2024-01-30T12:14:58;101082.52;;;5.49;54.46
50710;BME280;37033;49.994;21.992;2024-01-30T12:17:30;101081.45;;;5.50;54.02
50710;BME280;37033;49.994;21.992;2024-01-30T12:20:11;101080.04;;;5.52;53.69
50710;BME280;37033;49.994;21.992;2024-01-30T12:22:43;101078.09;;;5.51;53.52
50710;BME280;37033;49.994;21.992;2024-01-30T12:25:15;101080.14;;;5.52;53.72
50710;BME280;37033;49.994;21.992;2024-01-30T12:27:48;101075.02;;;5.53;53.72
50710;BME280;37033;49.994;21.992;2024-01-30T12:30:21;101074.11;;;5.55;53.63
50710;BME280;37033;49.994;21.992;2024-01-30T12:32:52;101073.20;;;5.55;53.03
50710;BME280;37033;49.994;21.992;2024-01-30T12:35:24;101074.69;;;5.55;53.15
50710;BME280;37033;49.994;21.992;2024-01-30T12:37:55;101074.65;;;5.57;53.33
50710;BME280;37033;49.994;21.992;2024-01-30T12:40:26;101069.42;;;5.57;53.49
50710;BME280;37033;49.994;21.992;2024-01-30T12:42:57;101067.17;;;5.58;53.70
50710;BME280;37033;49.994;21.992;2024-01-30T12:45:28;101063.25;;;5.61;53.37
50710;BME280;37033;49.994;21.992;2024-01-30T12:47:58;101063.93;;;5.61;53.58
50710;BME280;37033;49.994;21.992;2024-01-30T12:50:29;101059.81;;;5.62;53.18
50710;BME280;37033;49.994;21.992;2024-01-30T12:53:00;101063.79;;;5.61;53.02
50710;BME280;37033;49.994;21.992;2024-01-30T12:55:31;101059.77;;;5.59;52.98
50710;BME280;37033;49.994;21.992;2024-01-30T12:58:01;101056.34;;;5.58;52.43
50710;BME280;37033;49.994;21.992;2024-01-30T13:00:32;101056.74;;;5.56;52.59
50710;BME280;37033;49.994;21.992;2024-01-30T13:03:04;101053.06;;;5.55;52.52
50710;BME280;37033;49.994;21.992;2024-01-30T13:05:35;101052.60;;;5.53;52.90